sensor_id;sensor_type;location;lat;lon;timestamp;temperature;humidity
56771;DHT22;42641;59.794;17.616;2023-08-12T00:00:05;13.50;99.90
56771;DHT22;42641;59.794;17.616;2023-08-12T00:02:40;13.50;99.90
56771;DHT22;42641;59.794;17.616;2023-08-12T00:05:08;13.50;99.90
56771;DHT22;42641;59.794;17.616;2023-08-12T00:07:35;13.50;99.90
56771;DHT22;42641;59.794;17.616;2023-08-12T00:10:02;13.50;99.90
56771;DHT22;42641;59.794;17.616;2023-08-12T00:12:34;13.50;99.90
56771;DHT22;42641;59.794;17.616;2023-08-12T00:15:02;13.40;99.90
56771;DHT22;42641;59.794;17.616;2023-08-12T00:17:30;13.40;99.90
56771;DHT22;42641;59.794;17.616;2023-08-12T00:19:57;13.40;99.90
56771;DHT22;42641;59.794;17.616;2023-08-12T00:22:23;13.50;99.90
56771;DHT22;42641;59.794;17.616;2023-08-12T00:24:50;13.50;99.90
56771;DHT22;42641;59.794;17.616;2023-08-12T00:27:17;13.60;99.90
56771;DHT22;42641;59.794;17.616;2023-08-12T00:29:44;13.60;99.90
56771;DHT22;42641;59.794;17.616;2023-08-12T00:32:10;13.70;99.90
56771;DHT22;42641;59.794;17.616;2023-08-12T00:34:36;13.70;99.90
56771;DHT22;42641;59.794;17.616;2023-08-12T00:37:03;13.70;99.90
56771;DHT22;42641;59.794;17.616;2023-08-12T00:39:29;13.70;99.90
56771;DHT22;42641;59.794;17.616;2023-08-12T00:41:56;13.70;99.90
56771;DHT22;42641;59.794;17.616;2023-08-12T00:44:22;13.70;99.90
56771;DHT22;42641;59.794;17.616;2023-08-12T00:46:49;13.70;99.90
56771;DHT22;42641;59.794;17.616;2023-08-12T00:49:17;13.70;99.90
56771;DHT22;42641;59.794;17.616;2023-08-12T00:51:44;13.60;99.90
56771;DHT22;42641;59.794;17.616;2023-08-12T00:54:14;13.50;99.90
56771;DHT22;42641;59.794;17.616;2023-08-12T00:56:41;13.50;99.90
56771;DHT22;42641;59.794;17.616;2023-08-12T00:59:09;13.50;99.90
56771;DHT22;42641;59.794;17.616;2023-08-12T01:01:40;13.40;99.90
56771;DHT22;42641;59.794;17.616;2023-08-12T01:04:07;13.30;99.90
56771;DHT22;42641;59.794;17.616;2023-08-12T01:06:35;13.30;99.90
56771;DHT22;42641;59.794;17.616;2023-08-12T01:09:02;13.30;99.90
56771;DHT22;42641;59.794;17.616;2023-08-12T01:11:36;13.30;99.90
56771;DHT22;42641;59.794;17.616;2023-08-12T01:14:16;13.30;99.90
56771;DHT22;42641;59.794;17.616;2023-08-12T01:16:46;13.30;99.90
56771;DHT22;42641;59.794;17.616;2023-08-12T01:19:29;13.30;99.90
56771;DHT22;42641;59.794;17.616;2023-08-12T01:22:00;13.30;99.90
56771;DHT22;42641;59.794;17.616;2023-08-12T01:24:41;13.30;99.90
56771;DHT22;42641;59.794;17.616;2023-08-12T01:27:09;13.30;99.90
56771;DHT22;42641;59.794;17.616;2023-08-12T01:29:42;13.40;99.90
56771;DHT22;42641;59.794;17.616;2023-08-12T01:32:23;13.40;99.90
56771;DHT22;42641;59.794;17.616;2023-08-12T01:37:30;13.40;99.90
56771;DHT22;42641;59.794;17.616;2023-08-12T01:40:00;13.30;99.90
56771;DHT22;42641;59.794;17.616;2023-08-12T01:42:30;13.30;99.90
56771;DHT22;42641;59.794;17.616;2023-08-12T01:44:56;13.20;99.90
56771;DHT22;42641;59.794;17.616;2023-08-12T01:47:25;13.20;99.90
56771;DHT22;42641;59.794;17.616;2023-08-12T01:49:53;13.10;99.90
56771;DHT22;42641;59.794;17.616;2023-08-12T01:52:19;13.00;99.90
56771;DHT22;42641;59.794;17.616;2023-08-12T01:54:46;13.00;99.90
56771;DHT22;42641;59.794;17.616;2023-08-12T01:57:12;12.90;99.90
56771;DHT22;42641;59.794;17.616;2023-08-12T01:59:39;12.90;99.90
56771;DHT22;42641;59.794;17.616;2023-08-12T02:02:05;12.90;99.90
56771;DHT22;42641;59.794;17.616;2023-08-12T02:04:33;12.90;99.90
56771;DHT22;42641;59.794;17.616;2023-08-12T02:07:00;12.90;99.90
56771;DHT22;42641;59.794;17.616;2023-08-12T02:09:26;12.90;99.90
56771;DHT22;42641;59.794;17.616;2023-08-12T02:11:53;12.90;99.90
56771;DHT22;42641;59.794;17.616;2023-08-12T02:14:19;12.90;99.90
56771;DHT22;42641;59.794;17.616;2023-08-12T02:16:46;12.90;99.90
56771;DHT22;42641;59.794;17.616;2023-08-12T02:19:12;12.90;99.90
56771;DHT22;42641;59.794;17.616;2023-08-12T02:21:39;12.90;99.90
56771;DHT22;42641;59.794;17.616;2023-08-12T02:24:06;12.90;99.90
56771;DHT22;42641;59.794;17.616;2023-08-12T02:26:32;12.90;99.90
56771;DHT22;42641;59.794;17.616;2023-08-12T02:28:59;12.90;99.90
56771;DHT22;42641;59.794;17.616;2023-08-12T02:31:25;12.90;99.90
56771;DHT22;42641;59.794;17.616;2023-08-12T02:33:51;12.80;99.90
56771;DHT22;42641;59.794;17.616;2023-08-12T02:36:18;12.90;99.90
56771;DHT22;42641;59.794;17.616;2023-08-12T02:38:44;12.90;99.90
56771;DHT22;42641;59.794;17.616;2023-08-12T02:41:11;12.90;99.90
56771;DHT22;42641;59.794;17.616;2023-08-12T02:43:37;12.90;99.90
56771;DHT22;42641;59.794;17.616;2023-08-12T02:46:04;12.90;99.90
56771;DHT22;42641;59.794;17.616;2023-08-12T02:48:31;12.90;99.90
56771;DHT22;42641;59.794;17.616;2023-08-12T02:50:58;12.90;99.90
56771;DHT22;42641;59.794;17.616;2023-08-12T02:53:24;12.90;99.90
56771;DHT22;42641;59.794;17.616;2023-08-12T02:55:50;12.80;99.90
56771;DHT22;42641;59.794;17.616;2023-08-12T02:58:17;12.80;99.90
56771;DHT22;42641;59.794;17.616;2023-08-12T03:00:43;12.80;99.90
56771;DHT22;42641;59.794;17.616;2023-08-12T03:03:10;12.80;99.90
56771;DHT22;42641;59.794;17.616;2023-08-12T03:05:36;12.80;99.90
56771;DHT22;42641;59.794;17.616;2023-08-12T03:08:04;12.80;99.90
56771;DHT22;42641;59.794;17.616;2023-08-12T03:10:32;12.80;99.90
56771;DHT22;42641;59.794;17.616;2023-08-12T03:12:59;12.80;99.90
56771;DHT22;42641;59.794;17.616;2023-08-12T03:15:26;12.80;99.90
56771;DHT22;42641;59.794;17.616;2023-08-12T03:17:52;12.80;99.90
56771;DHT22;42641;59.794;17.616;2023-08-12T03:20:20;12.90;99.90
56771;DHT22;42641;59.794;17.616;2023-08-12T03:22:47;12.90;99.90
56771;DHT22;42641;59.794;17.616;2023-08-12T03:25:13;12.90;99.90
56771;DHT22;42641;59.794;17.616;2023-08-12T03:27:42;12.90;99.90
56771;DHT22;42641;59.794;17.616;2023-08-12T03:30:10;12.90;99.90
56771;DHT22;42641;59.794;17.616;2023-08-12T03:32:36;12.90;99.90
56771;DHT22;42641;59.794;17.616;2023-08-12T03:35:03;12.90;99.90
56771;DHT22;42641;59.794;17.616;2023-08-12T03:37:30;13.00;99.90
56771;DHT22;42641;59.794;17.616;2023-08-12T03:39:57;13.10;99.90
56771;DHT22;42641;59.794;17.616;2023-08-12T03:42:23;13.20;99.90
56771;DHT22;42641;59.794;17.616;2023-08-12T03:44:50;13.30;99.90
56771;DHT22;42641;59.794;17.616;2023-08-12T03:47:17;13.30;99.90
56771;DHT22;42641;59.794;17.616;2023-08-12T03:49:48;13.40;99.90
56771;DHT22;42641;59.794;17.616;2023-08-12T03:52:15;13.40;99.90
56771;DHT22;42641;59.794;17.616;2023-08-12T03:54:41;13.50;99.90
56771;DHT22;42641;59.794;17.616;2023-08-12T03:57:08;13.50;99.90
56771;DHT22;42641;59.794;17.616;2023-08-12T03:59:34;13.60;99.90
56771;DHT22;42641;59.794;17.616;2023-08-12T04:02:01;13.70;99.90
56771;DHT22;42641;59.794;17.616;2023-08-12T04:04:30;13.70;99.90
56771;DHT22;42641;59.794;17.616;2023-08-12T04:06:56;13.80;99.90
56771;DHT22;42641;59.794;17.616;2023-08-12T04:09:23;13.80;99.90
56771;DHT22;42641;59.794;17.616;2023-08-12T04:11:49;13.90;99.90
56771;DHT22;42641;59.794;17.616;2023-08-12T04:14:16;13.90;99.90
56771;DHT22;42641;59.794;17.616;2023-08-12T04:16:43;13.90;99.90
56771;DHT22;42641;59.794;17.616;2023-08-12T04:19:10;13.90;99.90
56771;DHT22;42641;59.794;17.616;2023-08-12T04:21:36;14.00;99.90
56771;DHT22;42641;59.794;17.616;2023-08-12T04:24:03;14.00;99.90
56771;DHT22;42641;59.794;17.616;2023-08-12T04:26:30;14.00;99.90
56771;DHT22;42641;59.794;17.616;2023-08-12T04:28:56;14.10;99.90
56771;DHT22;42641;59.794;17.616;2023-08-12T04:31:23;14.10;99.90
56771;DHT22;42641;59.794;17.616;2023-08-12T04:33:51;14.10;99.90
56771;DHT22;42641;59.794;17.616;2023-08-12T04:36:20;14.20;99.90
56771;DHT22;42641;59.794;17.616;2023-08-12T04:38:48;14.30;99.90
56771;DHT22;42641;59.794;17.616;2023-08-12T04:41:15;14.50;99.90
56771;DHT22;42641;59.794;17.616;2023-08-12T04:43:41;14.70;99.90
56771;DHT22;42641;59.794;17.616;2023-08-12T04:46:08;14.80;99.90
56771;DHT22;42641;59.794;17.616;2023-08-12T04:48:35;14.90;99.90
56771;DHT22;42641;59.794;17.616;2023-08-12T04:51:01;15.00;99.90
56771;DHT22;42641;59.794;17.616;2023-08-12T04:53:29;15.10;99.90
56771;DHT22;42641;59.794;17.616;2023-08-12T04:55:57;15.10;99.90
56771;DHT22;42641;59.794;17.616;2023-08-12T04:58:24;15.10;99.90
56771;DHT22;42641;59.794;17.616;2023-08-12T05:00:51;15.20;99.90
56771;DHT22;42641;59.794;17.616;2023-08-12T05:03:23;15.20;99.90
56771;DHT22;42641;59.794;17.616;2023-08-12T05:05:52;15.30;99.90
56771;DHT22;42641;59.794;17.616;2023-08-12T05:08:19;15.30;99.90
56771;DHT22;42641;59.794;17.616;2023-08-12T05:10:49;15.30;99.90
56771;DHT22;42641;59.794;17.616;2023-08-12T05:13:18;15.30;99.90
56771;DHT22;42641;59.794;17.616;2023-08-12T05:15:46;15.30;99.90
56771;DHT22;42641;59.794;17.616;2023-08-12T05:18:15;15.40;99.90
56771;DHT22;42641;59.794;17.616;2023-08-12T05:20:42;15.40;99.90
56771;DHT22;42641;59.794;17.616;2023-08-12T05:23:11;15.50;99.90
56771;DHT22;42641;59.794;17.616;2023-08-12T05:25:39;15.50;99.90
56771;DHT22;42641;59.794;17.616;2023-08-12T05:28:06;15.40;99.90
56771;DHT22;42641;59.794;17.616;2023-08-12T05:30:37;15.40;99.90
56771;DHT22;42641;59.794;17.616;2023-08-12T05:33:05;15.50;99.90
56771;DHT22;42641;59.794;17.616;2023-08-12T05:35:35;15.40;99.90
56771;DHT22;42641;59.794;17.616;2023-08-12T05:38:02;15.50;99.90
56771;DHT22;42641;59.794;17.616;2023-08-12T05:40:28;15.40;99.90
56771;DHT22;42641;59.794;17.616;2023-08-12T05:42:55;15.40;99.90
56771;DHT22;42641;59.794;17.616;2023-08-12T05:45:21;15.50;99.90
56771;DHT22;42641;59.794;17.616;2023-08-12T05:47:48;15.50;99.90
56771;DHT22;42641;59.794;17.616;2023-08-12T05:50:14;15.70;99.90
56771;DHT22;42641;59.794;17.616;2023-08-12T05:52:40;15.80;99.90
56771;DHT22;42641;59.794;17.616;2023-08-12T05:55:07;15.80;99.90
56771;DHT22;42641;59.794;17.616;2023-08-12T05:57:33;15.90;99.90
56771;DHT22;42641;59.794;17.616;2023-08-12T06:00:00;15.90;99.90
56771;DHT22;42641;59.794;17.616;2023-08-12T06:02:26;16.00;99.90
56771;DHT22;42641;59.794;17.616;2023-08-12T06:04:53;16.10;99.90
56771;DHT22;42641;59.794;17.616;2023-08-12T06:07:19;16.10;99.90
56771;DHT22;42641;59.794;17.616;2023-08-12T06:09:46;16.20;99.90
56771;DHT22;42641;59.794;17.616;2023-08-12T06:12:14;16.40;99.90
56771;DHT22;42641;59.794;17.616;2023-08-12T06:14:40;16.60;99.90
56771;DHT22;42641;59.794;17.616;2023-08-12T06:17:07;16.70;99.90
56771;DHT22;42641;59.794;17.616;2023-08-12T06:19:34;16.70;99.90
56771;DHT22;42641;59.794;17.616;2023-08-12T06:22:00;16.70;99.90
56771;DHT22;42641;59.794;17.616;2023-08-12T06:24:26;16.70;99.90
56771;DHT22;42641;59.794;17.616;2023-08-12T06:26:53;16.70;99.90
56771;DHT22;42641;59.794;17.616;2023-08-12T06:29:19;16.70;99.90
56771;DHT22;42641;59.794;17.616;2023-08-12T06:31:46;16.90;99.90
56771;DHT22;42641;59.794;17.616;2023-08-12T06:34:12;17.10;99.90
56771;DHT22;42641;59.794;17.616;2023-08-12T06:36:39;17.20;99.90
56771;DHT22;42641;59.794;17.616;2023-08-12T06:39:05;17.40;99.90
56771;DHT22;42641;59.794;17.616;2023-08-12T06:41:33;17.50;99.90
56771;DHT22;42641;59.794;17.616;2023-08-12T06:44:09;17.50;99.90
56771;DHT22;42641;59.794;17.616;2023-08-12T06:50:00;17.40;99.90
56771;DHT22;42641;59.794;17.616;2023-08-12T06:52:26;17.40;99.90
56771;DHT22;42641;59.794;17.616;2023-08-12T06:54:53;17.30;99.90
56771;DHT22;42641;59.794;17.616;2023-08-12T06:57:19;17.40;99.90
56771;DHT22;42641;59.794;17.616;2023-08-12T06:59:46;17.30;99.90
56771;DHT22;42641;59.794;17.616;2023-08-12T07:02:14;17.40;99.90
56771;DHT22;42641;59.794;17.616;2023-08-12T07:04:40;17.40;99.90
56771;DHT22;42641;59.794;17.616;2023-08-12T07:07:11;17.50;99.90
56771;DHT22;42641;59.794;17.616;2023-08-12T07:09:37;17.60;99.90
56771;DHT22;42641;59.794;17.616;2023-08-12T07:12:05;17.70;99.90
56771;DHT22;42641;59.794;17.616;2023-08-12T07:14:31;17.90;99.90
56771;DHT22;42641;59.794;17.616;2023-08-12T07:16:58;18.10;99.90
56771;DHT22;42641;59.794;17.616;2023-08-12T07:19:26;18.10;99.90
56771;DHT22;42641;59.794;17.616;2023-08-12T07:21:52;18.20;99.90
56771;DHT22;42641;59.794;17.616;2023-08-12T07:24:19;18.20;99.90
56771;DHT22;42641;59.794;17.616;2023-08-12T07:26:45;18.10;99.90
56771;DHT22;42641;59.794;17.616;2023-08-12T07:29:12;18.10;99.90
56771;DHT22;42641;59.794;17.616;2023-08-12T07:31:38;18.10;99.90
56771;DHT22;42641;59.794;17.616;2023-08-12T07:34:05;18.10;99.90
56771;DHT22;42641;59.794;17.616;2023-08-12T07:36:32;18.20;99.90
56771;DHT22;42641;59.794;17.616;2023-08-12T07:38:59;18.40;99.90
56771;DHT22;42641;59.794;17.616;2023-08-12T07:41:25;18.60;99.90
56771;DHT22;42641;59.794;17.616;2023-08-12T07:43:54;18.80;99.90
56771;DHT22;42641;59.794;17.616;2023-08-12T07:46:20;18.90;99.90
56771;DHT22;42641;59.794;17.616;2023-08-12T07:48:47;18.80;99.90
56771;DHT22;42641;59.794;17.616;2023-08-12T07:51:13;18.80;99.90
56771;DHT22;42641;59.794;17.616;2023-08-12T07:53:40;18.90;99.90
56771;DHT22;42641;59.794;17.616;2023-08-12T07:56:07;18.90;99.90
56771;DHT22;42641;59.794;17.616;2023-08-12T07:58:34;18.90;99.90
56771;DHT22;42641;59.794;17.616;2023-08-12T08:01:01;18.90;99.90
56771;DHT22;42641;59.794;17.616;2023-08-12T08:03:27;18.80;99.90
56771;DHT22;42641;59.794;17.616;2023-08-12T08:05:55;18.80;99.90
56771;DHT22;42641;59.794;17.616;2023-08-12T08:08:21;18.80;99.90
56771;DHT22;42641;59.794;17.616;2023-08-12T08:10:48;18.90;99.90
56771;DHT22;42641;59.794;17.616;2023-08-12T08:13:14;18.80;99.90
56771;DHT22;42641;59.794;17.616;2023-08-12T08:15:41;18.80;99.90
56771;DHT22;42641;59.794;17.616;2023-08-12T08:18:07;18.70;99.90
56771;DHT22;42641;59.794;17.616;2023-08-12T08:20:34;18.70;99.90
56771;DHT22;42641;59.794;17.616;2023-08-12T08:23:02;18.70;99.90
56771;DHT22;42641;59.794;17.616;2023-08-12T08:25:29;18.60;99.90
56771;DHT22;42641;59.794;17.616;2023-08-12T08:27:55;18.60;99.90
56771;DHT22;42641;59.794;17.616;2023-08-12T08:30:22;18.50;99.90
56771;DHT22;42641;59.794;17.616;2023-08-12T08:32:49;18.50;99.90
56771;DHT22;42641;59.794;17.616;2023-08-12T08:35:15;18.60;99.90
56771;DHT22;42641;59.794;17.616;2023-08-12T08:37:42;18.50;99.90
56771;DHT22;42641;59.794;17.616;2023-08-12T08:40:09;18.50;99.90
56771;DHT22;42641;59.794;17.616;2023-08-12T08:42:36;18.60;99.90
56771;DHT22;42641;59.794;17.616;2023-08-12T08:45:06;18.50;99.90
56771;DHT22;42641;59.794;17.616;2023-08-12T08:47:36;18.50;99.90
56771;DHT22;42641;59.794;17.616;2023-08-12T08:50:03;18.40;99.90
56771;DHT22;42641;59.794;17.616;2023-08-12T08:52:31;18.40;99.90
56771;DHT22;42641;59.794;17.616;2023-08-12T08:55:00;18.50;99.90
56771;DHT22;42641;59.794;17.616;2023-08-12T08:57:27;18.40;99.90
56771;DHT22;42641;59.794;17.616;2023-08-12T08:59:55;18.50;99.90
56771;DHT22;42641;59.794;17.616;2023-08-12T09:02:21;18.50;99.90
56771;DHT22;42641;59.794;17.616;2023-08-12T09:04:49;18.60;99.90
56771;DHT22;42641;59.794;17.616;2023-08-12T09:07:17;18.50;99.90
56771;DHT22;42641;59.794;17.616;2023-08-12T09:09:48;18.40;99.90
56771;DHT22;42641;59.794;17.616;2023-08-12T09:12:19;18.40;99.90
56771;DHT22;42641;59.794;17.616;2023-08-12T09:14:46;18.30;99.90
56771;DHT22;42641;59.794;17.616;2023-08-12T09:17:14;18.40;99.90
56771;DHT22;42641;59.794;17.616;2023-08-12T09:19:41;18.40;99.90
56771;DHT22;42641;59.794;17.616;2023-08-12T09:22:12;18.30;99.90
56771;DHT22;42641;59.794;17.616;2023-08-12T09:24:38;18.30;99.90
56771;DHT22;42641;59.794;17.616;2023-08-12T09:27:04;18.30;99.90
56771;DHT22;42641;59.794;17.616;2023-08-12T09:29:33;18.20;99.90
56771;DHT22;42641;59.794;17.616;2023-08-12T09:32:11;18.20;99.90
56771;DHT22;42641;59.794;17.616;2023-08-12T09:34:49;18.20;99.90
56771;DHT22;42641;59.794;17.616;2023-08-12T09:37:16;18.20;99.90
56771;DHT22;42641;59.794;17.616;2023-08-12T09:39:42;18.10;99.90
56771;DHT22;42641;59.794;17.616;2023-08-12T09:42:09;17.90;99.90
56771;DHT22;42641;59.794;17.616;2023-08-12T09:44:37;17.80;99.90
56771;DHT22;42641;59.794;17.616;2023-08-12T09:47:06;17.60;99.90
56771;DHT22;42641;59.794;17.616;2023-08-12T09:49:38;17.40;99.90
56771;DHT22;42641;59.794;17.616;2023-08-12T09:52:06;17.30;99.90
56771;DHT22;42641;59.794;17.616;2023-08-12T09:54:33;17.20;99.90
56771;DHT22;42641;59.794;17.616;2023-08-12T09:57:02;17.10;99.90
56771;DHT22;42641;59.794;17.616;2023-08-12T09:59:33;17.10;99.90
56771;DHT22;42641;59.794;17.616;2023-08-12T10:02:03;17.00;99.90
56771;DHT22;42641;59.794;17.616;2023-08-12T10:04:39;17.00;99.90
56771;DHT22;42641;59.794;17.616;2023-08-12T10:07:09;17.00;99.90
56771;DHT22;42641;59.794;17.616;2023-08-12T10:09:39;17.00;99.90
56771;DHT22;42641;59.794;17.616;2023-08-12T10:12:07;17.10;99.90
56771;DHT22;42641;59.794;17.616;2023-08-12T10:14:33;17.20;99.90
56771;DHT22;42641;59.794;17.616;2023-08-12T10:17:00;17.20;99.90
56771;DHT22;42641;59.794;17.616;2023-08-12T10:19:27;17.20;99.90
56771;DHT22;42641;59.794;17.616;2023-08-12T10:21:55;17.20;99.90
56771;DHT22;42641;59.794;17.616;2023-08-12T10:24:26;17.20;99.90
56771;DHT22;42641;59.794;17.616;2023-08-12T10:26:53;17.20;99.90
56771;DHT22;42641;59.794;17.616;2023-08-12T10:29:23;17.20;99.90
56771;DHT22;42641;59.794;17.616;2023-08-12T10:31:53;17.20;99.90
56771;DHT22;42641;59.794;17.616;2023-08-12T10:34:24;17.20;99.90
56771;DHT22;42641;59.794;17.616;2023-08-12T10:36:55;17.20;99.90
56771;DHT22;42641;59.794;17.616;2023-08-12T10:39:26;17.30;99.90
56771;DHT22;42641;59.794;17.616;2023-08-12T10:41:55;17.40;99.90
56771;DHT22;42641;59.794;17.616;2023-08-12T10:44:26;17.40;99.90
56771;DHT22;42641;59.794;17.616;2023-08-12T10:46:53;17.50;99.90
56771;DHT22;42641;59.794;17.616;2023-08-12T10:49:21;17.50;99.90
56771;DHT22;42641;59.794;17.616;2023-08-12T10:51:52;17.60;99.90
56771;DHT22;42641;59.794;17.616;2023-08-12T10:54:28;17.60;99.90
56771;DHT22;42641;59.794;17.616;2023-08-12T10:57:08;17.60;99.90
56771;DHT22;42641;59.794;17.616;2023-08-12T11:05:07;17.80;99.90
56771;DHT22;42641;59.794;17.616;2023-08-12T11:07:46;17.90;99.90
56771;DHT22;42641;59.794;17.616;2023-08-12T11:13:20;18.00;99.90
56771;DHT22;42641;59.794;17.616;2023-08-12T11:15:47;18.10;99.90
56771;DHT22;42641;59.794;17.616;2023-08-12T11:18:17;18.20;99.90
56771;DHT22;42641;59.794;17.616;2023-08-12T11:20:45;18.20;99.90
56771;DHT22;42641;59.794;17.616;2023-08-12T11:23:13;18.40;99.90
56771;DHT22;42641;59.794;17.616;2023-08-12T11:25:41;18.50;99.90
56771;DHT22;42641;59.794;17.616;2023-08-12T11:28:08;18.70;99.90
56771;DHT22;42641;59.794;17.616;2023-08-12T11:30:35;18.70;99.90
56771;DHT22;42641;59.794;17.616;2023-08-12T11:33:02;18.80;99.90
56771;DHT22;42641;59.794;17.616;2023-08-12T11:35:29;18.90;99.90
56771;DHT22;42641;59.794;17.616;2023-08-12T11:37:57;18.90;99.90
56771;DHT22;42641;59.794;17.616;2023-08-12T11:40:26;18.90;99.90
56771;DHT22;42641;59.794;17.616;2023-08-12T11:42:53;18.90;99.90
56771;DHT22;42641;59.794;17.616;2023-08-12T11:45:24;19.00;99.90
56771;DHT22;42641;59.794;17.616;2023-08-12T11:47:52;19.00;99.90
56771;DHT22;42641;59.794;17.616;2023-08-12T11:50:21;19.00;99.90
56771;DHT22;42641;59.794;17.616;2023-08-12T11:52:48;19.10;99.90
56771;DHT22;42641;59.794;17.616;2023-08-12T11:55:15;19.20;99.90
56771;DHT22;42641;59.794;17.616;2023-08-12T11:57:43;19.50;99.90
56771;DHT22;42641;59.794;17.616;2023-08-12T12:00:11;19.70;99.90
56771;DHT22;42641;59.794;17.616;2023-08-12T12:02:51;19.90;99.90
56771;DHT22;42641;59.794;17.616;2023-08-12T12:05:21;19.90;99.90
56771;DHT22;42641;59.794;17.616;2023-08-12T12:07:49;19.80;99.90
56771;DHT22;42641;59.794;17.616;2023-08-12T12:10:34;19.90;99.90
56771;DHT22;42641;59.794;17.616;2023-08-12T12:13:03;19.90;99.90
56771;DHT22;42641;59.794;17.616;2023-08-12T12:15:31;20.00;99.90
56771;DHT22;42641;59.794;17.616;2023-08-12T12:17:58;20.50;99.90
56771;DHT22;42641;59.794;17.616;2023-08-12T12:20:25;20.90;99.90
56771;DHT22;42641;59.794;17.616;2023-08-12T12:22:53;21.10;99.90
56771;DHT22;42641;59.794;17.616;2023-08-12T12:25:19;21.10;99.90
56771;DHT22;42641;59.794;17.616;2023-08-12T12:27:47;21.60;99.90
56771;DHT22;42641;59.794;17.616;2023-08-12T12:30:15;22.20;99.90
56771;DHT22;42641;59.794;17.616;2023-08-12T12:32:42;22.50;99.90
56771;DHT22;42641;59.794;17.616;2023-08-12T12:35:08;22.20;99.90
56771;DHT22;42641;59.794;17.616;2023-08-12T12:37:36;21.90;99.90
56771;DHT22;42641;59.794;17.616;2023-08-12T12:40:03;21.70;99.90
56771;DHT22;42641;59.794;17.616;2023-08-12T12:42:30;21.50;99.90
56771;DHT22;42641;59.794;17.616;2023-08-12T12:44:57;21.40;99.90
56771;DHT22;42641;59.794;17.616;2023-08-12T12:47:23;21.30;99.90
56771;DHT22;42641;59.794;17.616;2023-08-12T12:49:50;21.10;99.90
56771;DHT22;42641;59.794;17.616;2023-08-12T12:52:16;21.00;99.90
56771;DHT22;42641;59.794;17.616;2023-08-12T12:54:43;20.80;99.90
56771;DHT22;42641;59.794;17.616;2023-08-12T12:57:09;20.70;99.90
56771;DHT22;42641;59.794;17.616;2023-08-12T12:59:36;20.60;99.90
56771;DHT22;42641;59.794;17.616;2023-08-12T13:02:02;20.40;99.90
56771;DHT22;42641;59.794;17.616;2023-08-12T13:04:29;20.40;99.90
56771;DHT22;42641;59.794;17.616;2023-08-12T13:06:55;20.30;99.90
56771;DHT22;42641;59.794;17.616;2023-08-12T13:09:22;20.20;99.90
56771;DHT22;42641;59.794;17.616;2023-08-12T13:11:48;20.10;99.90
56771;DHT22;42641;59.794;17.616;2023-08-12T13:14:15;20.10;99.90
56771;DHT22;42641;59.794;17.616;2023-08-12T13:16:45;20.10;99.90
56771;DHT22;42641;59.794;17.616;2023-08-12T13:19:11;20.00;99.90
56771;DHT22;42641;59.794;17.616;2023-08-12T13:21:38;20.00;99.90
56771;DHT22;42641;59.794;17.616;2023-08-12T13:24:05;20.00;99.90
56771;DHT22;42641;59.794;17.616;2023-08-12T13:26:32;20.00;99.90
56771;DHT22;42641;59.794;17.616;2023-08-12T13:28:58;20.00;99.90
56771;DHT22;42641;59.794;17.616;2023-08-12T13:31:25;20.00;99.90
56771;DHT22;42641;59.794;17.616;2023-08-12T13:33:51;20.00;99.90
56771;DHT22;42641;59.794;17.616;2023-08-12T13:36:18;20.00;99.90
56771;DHT22;42641;59.794;17.616;2023-08-12T13:38:44;19.90;99.90
56771;DHT22;42641;59.794;17.616;2023-08-12T13:41:11;19.90;99.90
56771;DHT22;42641;59.794;17.616;2023-08-12T13:43:37;19.90;99.90
56771;DHT22;42641;59.794;17.616;2023-08-12T13:46:03;20.00;99.90
56771;DHT22;42641;59.794;17.616;2023-08-12T13:48:30;20.00;99.90
56771;DHT22;42641;59.794;17.616;2023-08-12T13:50:57;20.00;99.90
56771;DHT22;42641;59.794;17.616;2023-08-12T13:53:23;20.10;99.90
56771;DHT22;42641;59.794;17.616;2023-08-12T13:55:50;20.20;99.90
56771;DHT22;42641;59.794;17.616;2023-08-12T13:58:16;20.30;99.90
56771;DHT22;42641;59.794;17.616;2023-08-12T14:00:43;20.40;99.90
56771;DHT22;42641;59.794;17.616;2023-08-12T14:03:09;20.40;99.90
56771;DHT22;42641;59.794;17.616;2023-08-12T14:05:36;20.30;99.90
56771;DHT22;42641;59.794;17.616;2023-08-12T14:08:02;20.20;99.90
56771;DHT22;42641;59.794;17.616;2023-08-12T14:10:32;20.10;99.90
56771;DHT22;42641;59.794;17.616;2023-08-12T14:12:58;20.00;99.90
56771;DHT22;42641;59.794;17.616;2023-08-12T14:15:25;19.90;99.90
56771;DHT22;42641;59.794;17.616;2023-08-12T14:17:51;19.80;99.90
56771;DHT22;42641;59.794;17.616;2023-08-12T14:20:18;19.70;99.90
56771;DHT22;42641;59.794;17.616;2023-08-12T14:22:45;19.70;99.90
56771;DHT22;42641;59.794;17.616;2023-08-12T14:25:12;19.60;99.90
56771;DHT22;42641;59.794;17.616;2023-08-12T14:27:39;19.50;99.90
56771;DHT22;42641;59.794;17.616;2023-08-12T14:30:06;19.50;99.90
56771;DHT22;42641;59.794;17.616;2023-08-12T14:32:33;19.50;99.90
56771;DHT22;42641;59.794;17.616;2023-08-12T14:34:59;19.60;99.90
56771;DHT22;42641;59.794;17.616;2023-08-12T14:37:26;19.50;99.90
56771;DHT22;42641;59.794;17.616;2023-08-12T14:39:53;19.60;99.90
56771;DHT22;42641;59.794;17.616;2023-08-12T14:42:21;19.60;99.90
56771;DHT22;42641;59.794;17.616;2023-08-12T14:44:48;19.60;99.90
56771;DHT22;42641;59.794;17.616;2023-08-12T14:47:14;19.60;99.90
56771;DHT22;42641;59.794;17.616;2023-08-12T14:49:41;19.50;99.90
56771;DHT22;42641;59.794;17.616;2023-08-12T14:52:19;19.50;99.90
56771;DHT22;42641;59.794;17.616;2023-08-12T14:54:46;19.40;99.90
56771;DHT22;42641;59.794;17.616;2023-08-12T14:57:13;19.40;99.90
56771;DHT22;42641;59.794;17.616;2023-08-12T14:59:39;19.40;99.90
56771;DHT22;42641;59.794;17.616;2023-08-12T15:02:06;19.40;99.90
56771;DHT22;42641;59.794;17.616;2023-08-12T15:04:33;19.30;99.90
56771;DHT22;42641;59.794;17.616;2023-08-12T15:07:00;19.30;99.90
56771;DHT22;42641;59.794;17.616;2023-08-12T15:09:26;19.30;99.90
56771;DHT22;42641;59.794;17.616;2023-08-12T15:11:53;19.30;99.90
56771;DHT22;42641;59.794;17.616;2023-08-12T15:14:19;19.30;99.90
56771;DHT22;42641;59.794;17.616;2023-08-12T15:16:46;19.30;99.90
56771;DHT22;42641;59.794;17.616;2023-08-12T15:19:12;19.30;99.90
56771;DHT22;42641;59.794;17.616;2023-08-12T15:21:39;19.40;99.90
56771;DHT22;42641;59.794;17.616;2023-08-12T15:24:05;19.40;99.90
56771;DHT22;42641;59.794;17.616;2023-08-12T15:26:32;19.40;99.90
56771;DHT22;42641;59.794;17.616;2023-08-12T15:28:58;19.30;99.90
56771;DHT22;42641;59.794;17.616;2023-08-12T15:31:25;19.30;99.90